Time;durP1;ratioP1;P1;durP2;ratioP2;P2;SDS_P1;SDS_P2;PMS_P1;PMS_P2;Temp;Humidity;BMP_temperature;BMP_pressure;BME280_temperature;BME280_humidity;BME280_pressure;Samples;Min_cycle;Max_cycle;Signal;HPM_P1;HPM_P2
2022/11/01 05:00:51;;;;;;;17.10;10.90;;;12.30;99.90;;;;;;5826920;23;20527;-72
2022/11/01 05:03:18;;;;;;;14.30;11.03;;;12.30;99.90;;;;;;4993250;28;20460;-72
2022/11/01 05:05:45;;;;;;;15.97;11.47;;;12.30;99.90;;;;;;4992721;28;20502;-73
2022/11/01 05:08:13;;;;;;;16.13;12.50;;;12.30;99.90;;;;;;4993378;28;20454;-71
2022/11/01 05:10:41;;;;;;;16.77;11.63;;;12.30;99.90;;;;;;4993213;28;20468;-71
2022/11/01 05:13:09;;;;;;;13.70;10.20;;;12.30;99.90;;;;;;5035622;23;20522;-70
2022/11/01 05:15:36;;;;;;;13.57;10.20;;;12.30;99.90;;;;;;5012573;28;20815;-70
2022/11/01 05:18:05;;;;;;;19.87;10.67;;;12.30;99.90;;;;;;5012501;28;20461;-71
2022/11/01 05:20:32;;;;;;;12.87;8.50;;;12.40;99.90;;;;;;5012127;28;20466;-70
2022/11/01 05:23:00;;;;;;;12.30;9.03;;;12.40;99.90;;;;;;5003157;28;20482;-70
2022/11/01 05:25:27;;;;;;;14.30;8.30;;;12.50;99.90;;;;;;5012706;28;20560;-70
2022/11/01 05:27:59;;;;;;;16.00;8.40;;;12.50;99.90;;;;;;5012774;28;20451;-70
2022/11/01 05:30:26;;;;;;;16.07;9.20;;;12.60;99.90;;;;;;5012793;28;20445;-71
2022/11/01 05:32:56;;;;;;;12.30;9.23;;;12.60;99.90;;;;;;5012583;28;20455;-70
2022/11/01 05:35:25;;;;;;;13.50;9.73;;;12.60;99.90;;;;;;5013018;28;20500;-70
2022/11/01 05:37:51;;;;;;;14.13;9.10;;;12.60;99.90;;;;;;5012892;28;20837;-72
2022/11/01 05:40:18;;;;;;;15.83;8.40;;;12.70;99.90;;;;;;5012707;28;20462;-71
2022/11/01 05:42:45;;;;;;;10.90;7.67;;;12.70;99.90;;;;;;5012678;28;20458;-70
2022/11/01 05:45:12;;;;;;;13.07;8.27;;;12.70;99.90;;;;;;5011590;28;20486;-73
2022/11/01 05:47:40;;;;;;;11.90;7.90;;;12.80;99.90;;;;;;5012629;28;20463;-70
2022/11/01 05:50:07;;;;;;;10.30;8.00;;;12.80;99.90;;;;;;5012680;28;20459;-70
2022/11/01 05:52:35;;;;;;;12.90;7.30;;;12.80;99.90;;;;;;5012400;28;20826;-71
2022/11/01 05:55:02;;;;;;;14.07;7.57;;;12.90;99.90;;;;;;5012260;28;20482;-71
2022/11/01 05:57:29;;;;;;;10.00;7.50;;;12.90;99.90;;;;;;5012764;28;20957;-71
2022/11/01 05:59:56;;;;;;;10.67;7.40;;;12.90;99.90;;;;;;5012836;28;20462;-70
2022/11/01 06:02:23;;;;;;;15.63;8.27;;;12.90;99.90;;;;;;5012641;28;20459;-71
2022/11/01 06:04:50;;;;;;;15.20;8.60;;;12.90;99.90;;;;;;5011955;28;20486;-70
2022/11/01 06:07:17;;;;;;;11.03;7.90;;;12.90;99.90;;;;;;5012384;28;20466;-72
2022/11/01 06:09:45;;;;;;;13.53;6.83;;;12.90;99.90;;;;;;5012322;28;20458;-70
2022/11/01 06:12:12;;;;;;;19.10;7.83;;;13.00;99.90;;;;;;5006845;28;20487;-70
2022/11/01 06:14:38;;;;;;;19.60;8.30;;;13.00;99.90;;;;;;5008746;28;20478;-70
2022/11/01 06:17:05;;;;;;;12.77;7.73;;;13.00;99.90;;;;;;5012390;28;20455;-73
2022/11/01 06:19:32;;;;;;;14.57;7.80;;;13.00;99.90;;;;;;5012173;28;20462;-72
2022/11/01 06:21:59;;;;;;;10.50;7.43;;;13.00;99.90;;;;;;5012233;28;20465;-73
2022/11/01 06:24:25;;;;;;;11.63;8.20;;;13.10;99.90;;;;;;5011901;28;20505;-73
2022/11/01 06:26:53;;;;;;;14.50;8.30;;;13.10;99.90;;;;;;5012225;28;20462;-73
2022/11/01 06:29:20;;;;;;;11.30;7.87;;;13.10;99.90;;;;;;5012219;28;20461;-73
2022/11/01 06:31:47;;;;;;;13.03;8.87;;;13.10;99.90;;;;;;5012097;28;20455;-72
2022/11/01 06:34:14;;;;;;;15.17;8.27;;;13.10;99.90;;;;;;5011743;28;20467;-73
2022/11/01 06:36:42;;;;;;;14.47;7.93;;;13.20;99.90;;;;;;5011878;28;20455;-73
2022/11/01 06:39:09;;;;;;;14.20;8.57;;;13.20;99.90;;;;;;5012119;28;20447;-73
2022/11/01 06:41:36;;;;;;;13.30;8.70;;;13.20;99.90;;;;;;5011865;28;20459;-73
2022/11/01 06:44:04;;;;;;;12.40;8.87;;;13.20;99.90;;;;;;5011676;28;20474;-73
2022/11/01 06:46:31;;;;;;;13.03;7.73;;;13.20;99.90;;;;;;5011630;28;20969;-73
2022/11/01 06:48:58;;;;;;;11.70;6.97;;;13.20;99.90;;;;;;5011903;28;20849;-73
2022/11/01 06:51:25;;;;;;;15.40;6.90;;;13.30;99.90;;;;;;5011700;28;20826;-73
2022/11/01 06:53:51;;;;;;;11.30;7.13;;;13.30;99.90;;;;;;5011614;28;20478;-73
2022/11/01 06:56:18;;;;;;;11.60;9.23;;;13.30;99.90;;;;;;5011538;28;20832;-73
2022/11/01 06:58:48;;;;;;;14.13;9.43;;;13.30;99.90;;;;;;5015470;28;20463;-73
2022/11/01 07:01:17;;;;;;;18.87;9.97;;;13.40;99.90;;;;;;5015645;28;20458;-74
2022/11/01 07:03:44;;;;;;;14.47;9.57;;;13.40;99.90;;;;;;5015470;28;20509;-74
2022/11/01 07:06:11;;;;;;;12.70;9.60;;;13.40;99.90;;;;;;5015048;28;20581;-74
2022/11/01 07:08:38;;;;;;;15.40;9.20;;;13.30;99.90;;;;;;5015069;28;20459;-74
2022/11/01 07:11:05;;;;;;;17.70;10.53;;;13.30;99.90;;;;;;5015336;28;20506;-75
2022/11/01 07:13:32;;;;;;;17.40;9.20;;;13.30;99.90;;;;;;5015139;28;20486;-74
2022/11/01 07:16:02;;;;;;;15.37;10.73;;;13.40;99.90;;;;;;5015056;28;20489;-74
2022/11/01 07:18:31;;;;;;;13.77;10.70;;;13.40;99.90;;;;;;5015261;28;20490;-74
2022/11/01 07:21:00;;;;;;;16.20;10.57;;;13.40;99.90;;;;;;5014858;28;20497;-74
2022/11/01 07:23:28;;;;;;;15.37;10.77;;;13.40;99.90;;;;;;5014926;28;20993;-75
2022/11/01 07:25:55;;;;;;;13.10;10.87;;;13.40;99.90;;;;;;5014638;28;21021;-74
2022/11/01 07:28:22;;;;;;;18.10;9.90;;;13.40;99.90;;;;;;5014841;28;20466;-74
2022/11/01 07:30:49;;;;;;;15.83;9.77;;;13.40;99.90;;;;;;5014955;28;20462;-74
2022/11/01 07:33:16;;;;;;;12.23;8.13;;;13.40;99.90;;;;;;5014717;28;20854;-74
2022/11/01 07:35:44;;;;;;;14.07;9.73;;;13.40;99.90;;;;;;5014681;28;20458;-75
2022/11/01 07:38:11;;;;;;;13.80;8.77;;;13.50;99.90;;;;;;5015037;28;20466;-74
2022/11/01 07:40:38;;;;;;;14.30;9.50;;;13.50;99.90;;;;;;5014908;28;20469;-75
2022/11/01 07:43:06;;;;;;;14.43;8.50;;;13.50;99.90;;;;;;5014619;28;20479;-74
2022/11/01 07:45:35;;;;;;;11.07;7.47;;;13.60;99.90;;;;;;5014437;28;20487;-74
2022/11/01 07:48:05;;;;;;;15.07;8.07;;;13.60;99.90;;;;;;5014720;28;20457;-75
2022/11/01 07:50:33;;;;;;;11.40;7.77;;;13.60;99.90;;;;;;5015164;28;20923;-75
2022/11/01 07:53:06;;;;;;;11.87;7.90;;;13.70;99.90;;;;;;5014690;28;20455;-74
2022/11/01 07:55:33;;;;;;;13.50;8.13;;;13.70;99.90;;;;;;5014490;28;20466;-75
2022/11/01 07:58:00;;;;;;;10.80;7.43;;;13.80;99.90;;;;;;5014399;28;20455;-74
2022/11/01 08:00:27;;;;;;;17.93;9.13;;;13.80;99.90;;;;;;5014056;28;20452;-75
2022/11/01 08:03:00;;;;;;;10.27;7.90;;;13.80;99.90;;;;;;5010279;28;21022;-74
2022/11/01 08:05:26;;;;;;;11.27;7.93;;;13.90;99.90;;;;;;5014277;28;20995;-75
2022/11/01 08:07:53;;;;;;;13.20;8.50;;;14.00;99.90;;;;;;5014436;28;20455;-74
2022/11/01 08:10:21;;;;;;;11.27;7.67;;;14.00;99.90;;;;;;5014517;28;20459;-74
2022/11/01 08:12:48;;;;;;;10.73;9.00;;;14.00;99.90;;;;;;5013889;28;20463;-74
2022/11/01 08:15:15;;;;;;;17.77;11.23;;;14.10;99.90;;;;;;5014414;28;20461;-74
2022/11/01 08:17:42;;;;;;;19.50;12.70;;;14.20;99.90;;;;;;5014807;28;20451;-74
2022/11/01 08:20:10;;;;;;;16.00;12.97;;;14.20;99.90;;;;;;5014037;28;20461;-74
2022/11/01 08:22:39;;;;;;;18.13;12.80;;;14.20;99.90;;;;;;5013882;28;20455;-74
2022/11/01 08:25:06;;;;;;;17.70;11.80;;;14.20;99.90;;;;;;5013990;28;20491;-74
2022/11/01 08:27:34;;;;;;;17.27;12.10;;;14.20;99.90;;;;;;5013705;28;20458;-74
2022/11/01 08:30:01;;;;;;;18.00;13.27;;;14.20;99.90;;;;;;5013755;28;20932;-74
2022/11/01 08:32:28;;;;;;;13.30;11.20;;;14.30;99.90;;;;;;5014089;28;20502;-74
2022/11/01 08:34:55;;;;;;;17.27;11.10;;;14.30;99.90;;;;;;5013762;28;20478;-74
2022/11/01 08:37:22;;;;;;;22.03;13.50;;;14.40;99.90;;;;;;5013785;28;20466;-72
2022/11/01 08:39:49;;;;;;;15.07;13.00;;;14.40;99.90;;;;;;5013889;28;20466;-72
2022/11/01 08:42:16;;;;;;;15.53;11.70;;;14.50;99.90;;;;;;5013502;28;20465;-75
2022/11/01 08:44:44;;;;;;;16.47;11.67;;;14.50;99.90;;;;;;5013491;28;20480;-75
2022/11/01 08:47:11;;;;;;;14.77;9.93;;;14.60;99.90;;;;;;5013754;28;20461;-74
2022/11/01 08:49:37;;;;;;;10.87;7.50;;;14.70;99.90;;;;;;5013523;28;20458;-74
2022/11/01 08:52:04;;;;;;;9.60;6.97;;;14.80;99.90;;;;;;5013281;28;20455;-75
2022/11/01 08:54:31;;;;;;;10.20;7.47;;;14.90;99.90;;;;;;5012998;28;20479;-72
2022/11/01 08:56:58;;;;;;;13.33;6.63;;;14.90;99.90;;;;;;5013538;28;20466;-72
2022/11/01 08:59:25;;;;;;;12.07;7.80;;;15.00;99.90;;;;;;5013520;28;20843;-72
2022/11/01 09:01:53;;;;;;;8.07;5.40;;;15.00;99.90;;;;;;5013275;28;20830;-74
2022/11/01 09:04:20;;;;;;;10.30;4.93;;;15.20;99.90;;;;;;5013167;28;20471;-74
2022/11/01 09:06:47;;;;;;;5.97;4.00;;;15.20;99.90;;;;;;5012880;28;20998;-75
2022/11/01 09:09:14;;;;;;;9.37;4.37;;;15.30;99.90;;;;;;5013117;28;20447;-74
2022/11/01 09:11:40;;;;;;;4.40;3.57;;;15.50;99.90;;;;;;5012945;28;20461;-74
2022/11/01 09:14:07;;;;;;;4.37;3.50;;;15.60;99.90;;;;;;5012684;28;20483;-75
2022/11/01 09:16:34;;;;;;;4.80;3.20;;;15.60;99.90;;;;;;5012913;28;20457;-74
2022/11/01 09:19:02;;;;;;;3.87;3.30;;;15.70;99.90;;;;;;5012795;28;20454;-74
2022/11/01 09:21:29;;;;;;;4.33;3.30;;;15.70;99.90;;;;;;5012664;28;20458;-75
2022/11/01 09:23:57;;;;;;;3.97;3.50;;;15.70;99.90;;;;;;5012456;28;20478;-75
2022/11/01 09:26:25;;;;;;;3.60;3.27;;;15.70;99.90;;;;;;5013166;28;20490;-74
2022/11/01 09:28:53;;;;;;;4.30;3.53;;;15.70;99.90;;;;;;5013009;28;20455;-75
2022/11/01 09:31:20;;;;;;;9.13;3.30;;;15.70;99.90;;;;;;5012554;28;20995;-74
2022/11/01 09:33:47;;;;;;;3.97;3.00;;;15.70;99.90;;;;;;5012495;28;20529;-74
2022/11/01 09:36:15;;;;;;;3.00;2.20;;;15.80;99.90;;;;;;5012831;28;20824;-74
2022/11/01 09:38:42;;;;;;;2.00;1.80;;;15.80;99.90;;;;;;5012504;28;20835;-75
2022/11/01 09:41:18;;;;;;;1.70;1.60;;;15.80;99.90;;;;;;5012939;28;20477;-75
2022/11/01 09:43:45;;;;;;;2.77;1.60;;;15.90;99.90;;;;;;5012681;28;20479;-74
2022/11/01 09:46:16;;;;;;;2.90;1.73;;;16.00;99.90;;;;;;5012510;28;20487;-74
2022/11/01 09:48:44;;;;;;;2.20;1.77;;;16.00;99.90;;;;;;5012492;28;20458;-74
2022/11/01 09:51:15;;;;;;;2.73;2.07;;;16.10;99.90;;;;;;5012425;28;20458;-75
2022/11/01 09:53:43;;;;;;;3.53;2.00;;;16.20;99.90;;;;;;5012542;28;20482;-75
2022/11/01 09:56:14;;;;;;;3.13;1.97;;;16.20;99.90;;;;;;5012274;28;20446;-74
2022/11/01 09:58:50;;;;;;;4.00;1.77;;;16.30;99.90;;;;;;5012571;28;20450;-75
2022/11/01 10:01:28;;;;;;;3.60;2.13;;;16.40;99.90;;;;;;5012210;28;20443;-75
2022/11/01 10:04:22;;;;;;;4.87;1.80;;;16.50;99.90;;;;;;5012074;28;20512;-75
2022/11/01 10:06:59;;;;;;;2.97;2.00;;;16.60;99.90;;;;;;5012232;28;20494;-74
2022/11/01 10:09:37;;;;;;;2.30;1.80;;;16.80;99.90;;;;;;5012118;28;20911;-74
2022/11/01 10:12:17;;;;;;;3.50;1.50;;;16.90;99.90;;;;;;5012221;28;20462;-74
2022/11/01 10:14:58;;;;;;;5.63;1.73;;;17.10;99.90;;;;;;5011818;28;20482;-74
2022/11/01 10:17:47;;;;;;;2.63;1.63;;;17.20;99.90;;;;;;5012308;28;20467;-74
2022/11/01 10:20:15;;;;;;;3.20;1.80;;;17.30;99.90;;;;;;5011720;28;20817;-75
2022/11/01 10:22:44;;;;;;;1.83;1.40;;;17.50;99.90;;;;;;5012274;28;20458;-75
2022/11/01 10:25:21;;;;;;;1.43;1.27;;;17.60;99.90;;;;;;5011914;28;20451;-75
2022/11/01 10:27:58;;;;;;;1.70;1.20;;;17.70;99.90;;;;;;5012113;28;20454;-74
2022/11/01 10:30:28;;;;;;;2.27;1.43;;;17.80;99.90;;;;;;5011892;28;21015;-74
2022/11/01 10:33:00;;;;;;;3.60;1.37;;;17.90;99.90;;;;;;5014312;28;20912;-74
2022/11/01 10:35:30;;;;;;;1.90;1.47;;;17.90;99.90;;;;;;5015862;28;20458;-75
2022/11/01 10:38:02;;;;;;;3.30;1.23;;;18.10;99.90;;;;;;5015704;28;20830;-74
2022/11/01 10:40:35;;;;;;;2.40;1.57;;;18.20;99.90;;;;;;5015999;28;20442;-75
2022/11/01 10:43:10;;;;;;;2.53;1.73;;;18.30;99.90;;;;;;5015428;28;20896;-75
2022/11/01 10:45:37;;;;;;;1.60;1.30;;;18.30;99.90;;;;;;5015484;28;20862;-74
2022/11/01 10:48:05;;;;;;;1.70;1.30;;;18.50;99.90;;;;;;5015807;28;20558;-74
2022/11/01 10:50:32;;;;;;;3.20;1.20;;;18.50;99.90;;;;;;5015937;28;20459;-74
2022/11/01 10:53:07;;;;;;;4.70;1.70;;;18.40;99.90;;;;;;5015591;28;20451;-74
2022/11/01 10:55:41;;;;;;;2.17;1.10;;;18.50;99.90;;;;;;5015390;28;20437;-75
2022/11/01 10:58:18;;;;;;;1.67;1.37;;;18.50;99.90;;;;;;5015770;28;20450;-72
2022/11/01 11:00:46;;;;;;;3.10;1.30;;;18.40;99.90;;;;;;5015758;28;20449;-73
2022/11/01 11:03:19;;;;;;;1.90;1.30;;;18.40;99.90;;;;;;5015238;28;21000;-73
2022/11/01 11:05:48;;;;;;;6.40;1.60;;;18.50;99.90;;;;;;5015059;28;20480;-73
2022/11/01 11:08:17;;;;;;;2.80;1.50;;;18.50;99.90;;;;;;5015578;28;20454;-73
2022/11/01 11:10:45;;;;;;;2.07;1.50;;;18.60;99.90;;;;;;5015650;28;20460;-73
2022/11/01 11:13:15;;;;;;;5.50;1.80;;;18.50;99.90;;;;;;5022435;23;20494;-73
2022/11/01 11:15:45;;;;;;;2.87;1.50;;;18.50;99.90;;;;;;4975690;28;20944;-74
2022/11/01 11:18:23;;;;;;;4.90;2.00;;;18.50;99.90;;;;;;4976104;28;20532;-75
2022/11/01 11:20:52;;;;;;;2.50;1.70;;;18.40;99.90;;;;;;4975937;28;20455;-73
2022/11/01 11:23:21;;;;;;;4.73;1.53;;;18.30;99.90;;;;;;4975000;28;20469;-76
2022/11/01 11:25:50;;;;;;;4.37;1.63;;;18.30;99.90;;;;;;4975605;28;20527;-74
2022/11/01 11:28:25;;;;;;;3.73;1.70;;;18.40;99.90;;;;;;4975756;28;20959;-75
2022/11/01 11:30:52;;;;;;;3.47;1.60;;;18.30;99.90;;;;;;4975953;28;20440;-75
2022/11/01 11:33:20;;;;;;;4.97;1.97;;;18.30;99.90;;;;;;4975594;28;20547;-75
2022/11/01 11:35:56;;;;;;;4.43;1.53;;;18.30;99.90;;;;;;4975686;28;20463;-75
2022/11/01 11:38:41;;;;;;;3.20;1.70;;;18.30;99.90;;;;;;4975843;28;20451;-75
2022/11/01 11:41:11;;;;;;;4.63;1.60;;;18.30;99.90;;;;;;4970388;28;20448;-76
2022/11/01 11:43:40;;;;;;;7.80;1.50;;;18.30;99.90;;;;;;4974962;28;20499;-74
2022/11/01 11:46:14;;;;;;;2.83;1.63;;;18.30;99.90;;;;;;4975339;28;20518;-74
2022/11/01 11:48:48;;;;;;;4.73;1.87;;;18.30;99.90;;;;;;4975735;28;20460;-74
2022/11/01 11:51:15;;;;;;;2.90;1.60;;;18.30;99.90;;;;;;4975474;28;20543;-74
2022/11/01 11:53:42;;;;;;;3.40;1.90;;;18.30;99.90;;;;;;4975163;28;20486;-75
2022/11/01 11:56:11;;;;;;;10.73;2.07;;;18.30;99.90;;;;;;4974895;28;20465;-75
2022/11/01 11:58:41;;;;;;;4.30;1.80;;;18.30;99.90;;;;;;4975669;28;20459;-74
2022/11/01 12:01:12;;;;;;;4.03;1.93;;;18.30;99.90;;;;;;4975192;28;20900;-75
2022/11/01 12:03:46;;;;;;;5.07;2.20;;;18.20;99.90;;;;;;4975469;28;20828;-75
2022/11/01 12:06:18;;;;;;;3.53;1.70;;;18.20;99.90;;;;;;4975142;28;20486;-74
2022/11/01 12:08:47;;;;;;;6.17;1.77;;;18.20;99.90;;;;;;4975326;28;20457;-75
2022/11/01 12:11:16;;;;;;;4.87;2.10;;;18.20;99.90;;;;;;4975283;28;20464;-75
2022/11/01 12:13:44;;;;;;;3.27;2.17;;;18.10;99.90;;;;;;4975135;28;20546;-75
2022/11/01 12:16:23;;;;;;;5.13;2.13;;;18.10;99.90;;;;;;4974942;28;20456;-75
2022/11/01 12:18:53;;;;;;;4.37;2.03;;;18.10;99.90;;;;;;4974972;28;20444;-75
2022/11/01 12:21:26;;;;;;;2.80;1.47;;;18.00;99.90;;;;;;4975085;28;20465;-75
2022/11/01 12:24:00;;;;;;;4.10;1.90;;;18.00;99.90;;;;;;4975039;28;20476;-75
2022/11/01 12:26:30;;;;;;;4.23;2.07;;;18.00;99.90;;;;;;4974860;28;20873;-75
2022/11/01 12:29:06;;;;;;;6.40;2.30;;;18.00;99.90;;;;;;4975113;28;20474;-75
2022/11/01 12:31:33;;;;;;;3.63;2.30;;;17.90;99.90;;;;;;4974921;28;20454;-75
2022/11/01 12:34:06;;;;;;;3.40;2.20;;;17.90;99.90;;;;;;4974597;28;20476;-75
2022/11/01 12:36:39;;;;;;;5.40;2.37;;;17.90;99.90;;;;;;4974784;28;20452;-75
2022/11/01 12:39:17;;;;;;;5.17;2.00;;;17.90;99.90;;;;;;4974931;28;20527;-75
2022/11/01 12:41:48;;;;;;;6.63;2.10;;;17.90;99.90;;;;;;4974635;28;20441;-75
2022/11/01 12:44:32;;;;;;;3.77;2.27;;;17.90;99.90;;;;;;4974358;28;20571;-75
2022/11/01 12:47:05;;;;;;;5.10;2.43;;;17.90;99.90;;;;;;4974262;28;20496;-75
2022/11/01 12:49:39;;;;;;;6.17;2.30;;;17.90;99.90;;;;;;4974390;28;20466;-75
2022/11/01 12:52:13;;;;;;;4.73;2.10;;;17.90;99.90;;;;;;4973998;28;20448;-75
2022/11/01 12:54:45;;;;;;;2.80;1.83;;;17.90;99.90;;;;;;4973059;28;20487;-75
2022/11/01 12:57:17;;;;;;;4.97;2.33;;;17.90;99.90;;;;;;4974404;28;20484;-75
2022/11/01 12:59:45;;;;;;;5.43;2.70;;;17.80;99.90;;;;;;4974440;28;20456;-75
2022/11/01 13:02:32;;;;;;;2.90;2.10;;;17.70;99.90;;;;;;4973978;28;20948;-75
2022/11/01 13:05:04;;;;;;;3.67;2.17;;;17.70;99.90;;;;;;4974564;28;20981;-76
2022/11/01 13:07:41;;;;;;;6.47;2.30;;;17.80;99.90;;;;;;4974236;28;20483;-74
2022/11/01 13:10:14;;;;;;;3.43;1.67;;;17.80;99.90;;;;;;4974354;28;20436;-74
2022/11/01 13:12:51;;;;;;;5.70;2.00;;;17.70;99.90;;;;;;4973904;28;20469;-73
2022/11/01 13:15:24;;;;;;;6.60;2.30;;;17.70;99.90;;;;;;4973535;28;20499;-74
2022/11/01 13:17:59;;;;;;;8.73;2.97;;;17.80;99.90;;;;;;4974111;28;20447;-74
2022/11/01 13:20:45;;;;;;;5.13;2.57;;;17.80;99.90;;;;;;4974203;28;20539;-74
2022/11/01 13:23:19;;;;;;;5.47;1.90;;;17.80;99.90;;;;;;4973935;28;20924;-74
2022/11/01 13:25:52;;;;;;;6.90;2.33;;;17.90;99.90;;;;;;4973849;28;20836;-75
2022/11/01 13:28:50;;;;;;;7.13;2.33;;;17.90;99.90;;;;;;4973830;28;20453;-74
2022/11/01 13:31:40;;;;;;;4.73;1.70;;;18.00;99.90;;;;;;4969950;28;20465;-74
2022/11/01 13:34:19;;;;;;;4.50;2.00;;;18.00;99.90;;;;;;4973661;28;20473;-74
2022/11/01 13:36:52;;;;;;;4.77;2.20;;;18.00;99.90;;;;;;4973944;28;20552;-74
2022/11/01 13:39:26;;;;;;;5.07;2.37;;;18.00;99.90;;;;;;4973747;28;20433;-74
2022/11/01 13:42:00;;;;;;;5.30;2.30;;;18.00;99.90;;;;;;4973950;28;20810;-74
2022/11/01 13:44:33;;;;;;;4.87;2.20;;;18.10;99.90;;;;;;4972994;28;20949;-74
2022/11/01 13:47:23;;;;;;;6.67;2.60;;;18.10;99.90;;;;;;4974098;28;20483;-74
2022/11/01 13:50:35;;;;;;;4.20;1.77;;;18.10;99.90;;;;;;4968300;28;20969;-76
2022/11/01 13:53:06;;;;;;;5.20;1.87;;;18.20;99.90;;;;;;4973213;28;20971;-75
2022/11/01 13:55:40;;;;;;;4.90;2.20;;;18.20;99.90;;;;;;4973146;28;20456;-75
2022/11/01 13:58:08;;;;;;;4.50;1.87;;;18.20;99.90;;;;;;4973400;28;20465;-75
2022/11/01 14:00:39;;;;;;;3.87;1.73;;;18.30;99.90;;;;;;4973171;28;20468;-75
2022/11/01 14:03:26;;;;;;;7.53;2.17;;;18.30;99.90;;;;;;4972887;28;20468;-75
2022/11/01 14:06:26;;;;;;;11.60;1.97;;;18.40;99.90;;;;;;4972557;28;20471;-74
2022/11/01 14:09:18;;;;;;;4.00;1.50;;;18.40;99.90;;;;;;4973392;28;20480;-74
2022/11/01 14:11:48;;;;;;;5.57;2.10;;;18.40;99.90;;;;;;4973271;28;20515;-73
2022/11/01 14:14:49;;;;;;;3.93;1.90;;;18.40;99.90;;;;;;4972662;28;20492;-73
2022/11/01 14:17:59;;;;;;;6.03;1.83;;;18.40;99.90;;;;;;4973228;28;20507;-73
2022/11/01 14:20:44;;;;;;;3.83;1.83;;;18.40;99.90;;;;;;4973069;28;20460;-73
2022/11/01 14:23:51;;;;;;;4.20;2.00;;;18.30;99.90;;;;;;4973574;28;20461;-74
2022/11/01 14:26:47;;;;;;;4.70;1.63;;;18.30;99.90;;;;;;4973181;28;20437;-73
2022/11/01 14:29:15;;;;;;;4.03;1.70;;;18.30;99.90;;;;;;4958778;28;20456;-74
2022/11/01 14:31:46;;;;;;;5.17;1.90;;;18.20;99.90;;;;;;4973264;28;20452;-73
2022/11/01 14:34:34;;;;;;;5.10;1.80;;;18.20;99.90;;;;;;4972379;28;20482;-73
2022/11/01 14:37:13;;;;;;;5.53;2.17;;;18.20;99.90;;;;;;4972986;28;20463;-73
2022/11/01 14:39:49;;;;;;;5.10;1.53;;;18.20;99.90;;;;;;4973130;28;20449;-73
2022/11/01 14:42:21;;;;;;;5.87;1.70;;;18.20;99.90;;;;;;4972855;28;20479;-74
2022/11/01 14:44:52;;;;;;;5.40;2.10;;;18.20;99.90;;;;;;4972200;28;20488;-73
2022/11/01 14:47:30;;;;;;;3.80;2.00;;;18.30;99.90;;;;;;4973595;28;20499;-73
2022/11/01 14:50:00;;;;;;;5.97;1.57;;;18.40;99.90;;;;;;4972986;28;20452;-74
2022/11/01 14:52:35;;;;;;;5.03;1.80;;;18.60;99.90;;;;;;4972845;28;20455;-74
2022/11/01 14:55:07;;;;;;;4.00;1.73;;;18.70;99.90;;;;;;4972256;28;20507;-74
2022/11/01 14:57:35;;;;;;;5.03;1.80;;;18.80;99.90;;;;;;4972819;28;20460;-73
2022/11/01 15:00:22;;;;;;;5.37;1.60;;;18.90;99.90;;;;;;4972679;28;20967;-73
2022/11/01 15:02:49;;;;;;;5.33;2.03;;;18.90;99.90;;;;;;4972641;28;20460;-73
2022/11/01 15:05:16;;;;;;;4.00;1.77;;;18.90;99.90;;;;;;4972327;28;20935;-76
2022/11/01 15:07:50;;;;;;;4.23;2.17;;;18.80;99.90;;;;;;4972359;28;20566;-74
2022/11/01 15:10:17;;;;;;;10.43;2.10;;;18.70;99.90;;;;;;4973142;28;20460;-74
2022/11/01 15:12:47;;;;;;;3.90;1.80;;;18.60;99.90;;;;;;4972962;28;20452;-75
2022/11/01 15:15:18;;;;;;;4.70;2.00;;;18.40;99.90;;;;;;4972014;28;20491;-73
2022/11/01 15:17:51;;;;;;;5.93;2.20;;;18.20;99.90;;;;;;4973034;28;20457;-73
2022/11/01 15:20:19;;;;;;;7.17;2.00;;;18.00;99.90;;;;;;4976336;28;20452;-73
2022/11/01 15:22:48;;;;;;;5.00;2.37;;;18.00;99.90;;;;;;4975734;28;20830;-73
2022/11/01 15:25:25;;;;;;;5.90;2.30;;;17.80;99.90;;;;;;4976005;28;20948;-73
2022/11/01 15:27:53;;;;;;;9.67;3.00;;;17.70;99.90;;;;;;4975792;28;20479;-73
2022/11/01 15:30:22;;;;;;;5.27;2.73;;;17.60;99.90;;;;;;4975816;28;20460;-73
2022/11/01 15:32:52;;;;;;;5.50;2.30;;;17.50;99.90;;;;;;4975575;28;20461;-73
2022/11/01 15:35:23;;;;;;;5.67;3.03;;;17.40;99.90;;;;;;4975408;28;20879;-73
2022/11/01 15:37:53;;;;;;;9.03;3.40;;;17.30;99.90;;;;;;4975976;28;20464;-73
2022/11/01 15:40:29;;;;;;;9.43;2.43;;;17.20;99.90;;;;;;4975671;28;20475;-74
2022/11/01 15:42:57;;;;;;;3.97;1.77;;;17.20;99.90;;;;;;4975653;28;20528;-74
2022/11/01 15:45:28;;;;;;;3.70;1.93;;;17.10;99.90;;;;;;4975333;28;20487;-74
2022/11/01 15:47:56;;;;;;;5.27;2.00;;;17.00;99.90;;;;;;4975489;28;20976;-74
2022/11/01 15:50:23;;;;;;;5.77;1.90;;;16.90;99.90;;;;;;4975584;28;20463;-74
2022/11/01 15:52:51;;;;;;;5.40;2.13;;;16.90;99.90;;;;;;4975593;28;20460;-74
2022/11/01 15:55:28;;;;;;;3.00;1.87;;;16.80;99.90;;;;;;4975596;28;20849;-74
2022/11/01 15:57:59;;;;;;;7.10;1.87;;;16.80;99.90;;;;;;4975658;28;20841;-74
2022/11/01 16:00:33;;;;;;;6.97;2.33;;;16.80;99.90;;;;;;4975664;28;20437;-74
2022/11/01 16:03:05;;;;;;;6.70;2.40;;;16.70;99.90;;;;;;4975711;28;20461;-74
2022/11/01 16:05:36;;;;;;;5.07;2.30;;;16.70;99.90;;;;;;4975223;28;20437;-74
2022/11/01 16:08:07;;;;;;;4.63;2.50;;;16.70;99.90;;;;;;4975057;28;20503;-74
2022/11/01 16:10:34;;;;;;;5.77;2.30;;;16.70;99.90;;;;;;4975193;28;20464;-74
2022/11/01 16:13:03;;;;;;;6.13;3.33;;;16.70;99.90;;;;;;4975144;28;20448;-73
2022/11/01 16:15:31;;;;;;;6.80;3.27;;;16.70;99.90;;;;;;4974440;28;20487;-74
2022/11/01 16:18:00;;;;;;;6.40;3.77;;;16.70;99.90;;;;;;4974978;28;20959;-74
2022/11/01 16:20:36;;;;;;;6.40;3.40;;;16.70;99.90;;;;;;4974721;28;20460;-74
2022/11/01 16:23:06;;;;;;;8.90;3.50;;;16.70;99.90;;;;;;4974852;28;20979;-74
2022/11/01 16:25:36;;;;;;;4.73;3.10;;;16.70;99.90;;;;;;4974523;28;20902;-74
2022/11/01 16:28:06;;;;;;;6.90;2.97;;;16.60;99.90;;;;;;4974882;28;20484;-74
2022/11/01 16:30:41;;;;;;;11.03;4.20;;;16.60;99.90;;;;;;4973509;28;20810;-74
2022/11/01 16:33:16;;;;;;;11.63;4.80;;;16.50;99.90;;;;;;4974204;28;20920;-74
2022/11/01 16:35:43;;;;;;;7.80;4.27;;;16.50;99.90;;;;;;4974521;28;20458;-73
2022/11/01 16:38:36;;;;;;;7.43;4.10;;;16.50;99.90;;;;;;4974571;28;20456;-73
2022/11/01 16:41:06;;;;;;;15.30;8.77;;;16.50;99.90;;;;;;4974799;28;20456;-74
2022/11/01 16:43:34;;;;;;;17.83;9.97;;;16.40;99.90;;;;;;4974368;28;20476;-73
2022/11/01 16:46:03;;;;;;;16.57;11.93;;;16.40;99.90;;;;;;4974383;28;20467;-74
2022/11/01 16:48:32;;;;;;;18.20;12.50;;;16.40;99.90;;;;;;4974214;28;20494;-74
2022/11/01 16:51:01;;;;;;;18.07;9.70;;;16.30;99.90;;;;;;4974327;28;21019;-74
2022/11/01 16:53:30;;;;;;;15.03;9.33;;;16.20;99.90;;;;;;4974208;28;20512;-74
2022/11/01 16:56:03;;;;;;;16.43;7.17;;;16.20;99.90;;;;;;4973786;28;20457;-73
2022/11/01 16:58:31;;;;;;;14.20;8.50;;;16.20;99.90;;;;;;4974346;28;20999;-74
2022/11/01 17:00:59;;;;;;;18.37;10.13;;;16.20;99.90;;;;;;4974298;28;20956;-74
2022/11/01 17:03:26;;;;;;;22.77;11.20;;;16.10;99.90;;;;;;4974342;28;20452;-73
2022/11/01 17:05:53;;;;;;;25.97;12.73;;;16.00;99.90;;;;;;4973984;28;20873;-73
2022/11/01 17:08:22;;;;;;;31.07;12.90;;;15.90;99.90;;;;;;4974347;28;20494;-74
2022/11/01 17:10:51;;;;;;;13.80;7.47;;;15.90;99.90;;;;;;4974067;28;20495;-73
2022/11/01 17:13:18;;;;;;;13.50;7.13;;;15.80;99.90;;;;;;4973740;28;20456;-73
2022/11/01 17:15:47;;;;;;;11.50;7.60;;;15.70;99.90;;;;;;5014788;23;20509;-71
2022/11/01 17:18:17;;;;;;;9.23;5.93;;;15.60;99.90;;;;;;4993283;28;20451;-71
2022/11/01 17:20:47;;;;;;;14.63;6.93;;;15.60;99.90;;;;;;4993517;28;20815;-71
2022/11/01 17:23:16;;;;;;;10.07;5.80;;;15.60;99.90;;;;;;4987328;28;20468;-71
2022/11/01 17:25:46;;;;;;;11.13;5.33;;;15.50;99.90;;;;;;4990991;28;20551;-70
2022/11/01 17:28:14;;;;;;;9.13;6.00;;;15.40;99.90;;;;;;4993177;28;20492;-71
2022/11/01 17:30:41;;;;;;;11.23;6.17;;;15.30;99.90;;;;;;4993050;28;20455;-70
2022/11/01 17:33:08;;;;;;;12.30;6.10;;;15.30;99.90;;;;;;4993045;28;20470;-70
2022/11/01 17:35:35;;;;;;;11.87;6.60;;;15.30;99.90;;;;;;4992615;28;20526;-71
2022/11/01 17:38:02;;;;;;;11.43;6.40;;;15.20;99.90;;;;;;4992990;28;20944;-71
2022/11/01 17:40:29;;;;;;;10.37;6.40;;;15.10;99.90;;;;;;4992752;28;20824;-70
2022/11/01 17:42:56;;;;;;;12.23;6.77;;;15.10;99.90;;;;;;4993335;28;20459;-70
2022/11/01 17:45:24;;;;;;;16.00;7.80;;;15.10;99.90;;;;;;4992540;28;20479;-71
2022/11/01 17:47:54;;;;;;;12.73;7.80;;;15.10;99.90;;;;;;4993088;28;20494;-70
2022/11/01 17:50:22;;;;;;;12.20;7.30;;;15.00;99.90;;;;;;4993060;28;20456;-70
2022/11/01 17:52:49;;;;;;;14.23;7.73;;;15.00;99.90;;;;;;4993065;28;20456;-72
2022/11/01 17:55:16;;;;;;;13.30;7.33;;;15.00;99.90;;;;;;4992506;28;20494;-71
2022/11/01 17:57:43;;;;;;;11.00;6.83;;;14.90;99.90;;;;;;4992923;28;20864;-72
2022/11/01 18:00:11;;;;;;;10.00;6.83;;;14.90;99.90;;;;;;4992897;28;20456;-70